Terminal Aerodrome Forecast
Issued by NWS

Home | Current Version | Previous Version | Text Only | Print | Product List | Glossary On
Versions: 1 2 3 4 5 6 7 8 9 10 11 12 13 14 15 16 17 18 19 20 21 22 23 24 25 26 27
868
FTUS43 KDVN 160520
TAFCID
TAF
KCID 160520Z 1606/1706 09007KT P6SM SCT250
     FM161500 12006KT P6SM VCSH SCT025 OVC090 PROB30 1618/1622 2SM
      SHRA BKN035 OVC050
     FM170100 13006KT 2SM -TSRA BKN035CB OVC050=

USA.gov is the U.S. government's official web portal to all federal, state and local government web resources and services.